This is the latest recevied weather packets stored in our database for station/object W5HKR. If no packets are shown the sender has not sent any weather packets the latest 10 day(s).
| Time | Temp. | Humidity | Pressure | Rain* | Wind** | Luminosity | Snow |
|---|---|---|---|---|---|---|---|
| 1777148899 | 18.33° C | 91% | 990.6 hPa | 0 mm | - | - | - |
| 1777148599 | 32.22° C | 59% | 978.3 hPa | 0 mm | - | - | - |
| 1777148549 | 32.22° C | 60% | 978.5 hPa | 0 mm | - | - | - |
| 1777148297 | 31.11° C | 62% | 978.3 hPa | 0 mm | - | - | - |
| 1777147998 | 31.67° C | 61% | 979 hPa | 0 mm | - | - | - |
| 1777147698 | 31.11° C | 60% | 978.8 hPa | 0 mm | - | - | - |
| 1777147470 | 18.33° C | 91% | 990.6 hPa | 0 mm | - | - | - |
| 1777147397 | 18.33° C | 91% | 990.6 hPa | 0 mm | - | - | - |
| 1777147099 | 31.11° C | 63% | 979.3 hPa | 0 mm | - | - | - |
| 1777146798 | 18.33° C | 91% | 990.6 hPa | 0 mm | - | - | - |
| 1777146500 | 31.11° C | 63% | 979.3 hPa | 0 mm | - | - | - |
| 1777146389 | 18.33° C | 91% | 990.6 hPa | 0 mm | - | - | - |
| 1777146198 | 18.33° C | 91% | 990.6 hPa | 0 mm | - | - | - |
| 1777145899 | 31.11° C | 64% | 979.3 hPa | 0 mm | - | - | - |
| 1777145598 | 18.33° C | 91% | 990.6 hPa | 0 mm | - | - | - |
| 1777145298 | 30° C | 68% | 979.3 hPa | 0 mm | - | - | - |
| 1777144998 | 30° C | 65% | 980.1 hPa | 0 mm | - | - | - |
| 1777144698 | 30° C | 65% | 979.6 hPa | 0 mm | - | - | - |
| 1777144399 | 30.56° C | 65% | 979.7 hPa | 0 mm | - | - | - |
| 1777144229 | 30° C | 66% | 979.7 hPa | 0 mm | - | - | - |
| 1777144099 | 29.44° C | 67% | 980.2 hPa | 0 mm | - | - | - |
| 1777143798 | 18.33° C | 91% | 990.6 hPa | 0 mm | - | - | - |
| 1777143497 | 29.44° C | 68% | 979.4 hPa | 0 mm | - | - | - |
| 1777143197 | 29.44° C | 68% | 979.7 hPa | 0 mm | - | - | - |
| 1777143149 | 18.33° C | 91% | 990.6 hPa | 0 mm | - | - | - |
* Rain latest hour (hover to see other rain measurements)
** Current wind speed in m/s (hover to see current wind gust speed)